Decoded Metar for KJSO (JACKSONVILLE in TX, USA) (IATA:JSO) | Meteo·Mobile Aviation Weather
aviador You're here:

KJSO Decoded Metar

JACKSONVILLE in TX, USA
Report Time2018-12-14 17:35:00
UTC Time2018-12-14 17:35:17
Flight Rules lifr LIFR
Wind300° at 13 Gusting to 20 kt
W.Decomp.*RWY 32: 11.8 kt HW 5.5 kt LCW
W.Rank300° ranks 30
Current wind is above 300° avg. (6.7)
Visibility9999 m
Phenomena:N/A
Clouds:Overcast 004 Hf
Ceiling400 ft
Temp07°C (ISA -7)
Dew Point07°C (100% RH)
AAT1.6°C
QNH1012 hPa
Density Alt49 ft
Elevation676 ft
Report Wrong Elevation
Raw Report
METAR KJSO 141735Z AUTO 30013G20KT 10SM OVC004 07/07 A2987 RMK AO2
LTG DSNT NE T00730071=

Extra information for KJSO:More info

Metar Taf Metar & Taf Last 4 Metars F.Rules Stats Wind Profile Meteogram Temp Stats Airport Information Weather charts Add Link Nearby VenuesMetar ALERT Operation Metar Decoded Social comments

AIRNAV info for KJSO